McKinney's Hourly Summary for Monday, May 14, 2018
Hour Temp
(f)
RH
(%)
Solar Rad.
(MJ/m2)
Rainfall
(in)
Wind
(mph)
5/14/2018 12:00 AM 75 73 0 0 3.39
5/14/2018 1:00 AM 73 78 0 0 2.82
5/14/2018 2:00 AM 75 76 0 0 3.35
5/14/2018 3:00 AM 75 76 0 0 3.91
5/14/2018 4:00 AM 73 78 0 0 4.96
5/14/2018 5:00 AM 73 82 0 0 4.34
5/14/2018 6:00 AM 72 84 0 0 4.54
5/14/2018 7:00 AM 71 88 0.02 0 4.83
5/14/2018 8:00 AM 72 84 0.39 0 6.27
5/14/2018 9:00 AM 74 78 0.84 0 7.81
5/14/2018 10:00 AM 76 74 1.16 0 8.82
5/14/2018 11:00 AM 78 66 1.9 0 9.78
5/14/2018 12:00 PM 81 62 2.58 0 9.24
5/14/2018 1:00 PM 82 59 2.1 0 8.33
5/14/2018 2:00 PM 84 54 2.88 0 8.93
5/14/2018 3:00 PM 85 53 2.25 0 8.93
5/14/2018 4:00 PM 87 49 2.66 0 8.76
5/14/2018 5:00 PM 87 49 2.2 0 9.45
5/14/2018 6:00 PM 85 54 1.36 0 10.72
5/14/2018 7:00 PM 85 54 0.76 0 9.73
5/14/2018 8:00 PM 82 56 0.13 0 7.71
5/14/2018 9:00 PM 80 64 0.01 0 6.06
5/14/2018 10:00 PM 79 67 0 0 5.11
5/14/2018 11:00 PM 78 69 0 0 5.94
Data Summary 78 67 21.24 0.00 6.82